Time;durP1;ratioP1;P1;durP2;ratioP2;P2;SDS_P1;SDS_P2;PMS_P1;PMS_P2;Temp;Humidity;BMP_temperature;BMP_pressure;BME280_temperature;BME280_humidity;BME280_pressure;Samples;Min_cycle;Max_cycle;Signal;HPM_P1;HPM_P2
2021/01/14 00:02:24;;;;;;;18.40;13.00;;;7.00;99.90;;;;;;4995640;28;20176;-93
2021/01/14 00:04:52;;;;;;;24.00;13.30;;;7.00;99.90;;;;;;5016955;28;20199;-93
2021/01/14 00:07:20;;;;;;;21.93;13.27;;;7.10;99.90;;;;;;5013979;28;20188;-93
2021/01/14 00:09:47;;;;;;;24.17;12.77;;;7.20;99.90;;;;;;5016128;28;20223;-92
2021/01/14 00:12:13;;;;;;;26.03;12.30;;;7.20;99.90;;;;;;5035703;28;20172;-93
2021/01/14 00:14:41;;;;;;;21.07;12.97;;;7.20;99.90;;;;;;5036287;28;20165;-92
2021/01/14 00:17:07;;;;;;;23.00;13.77;;;7.30;99.90;;;;;;5020960;28;20165;-92
2021/01/14 00:19:35;;;;;;;19.00;13.20;;;7.20;99.90;;;;;;5004762;28;20232;-92
2021/01/14 00:22:01;;;;;;;25.23;13.40;;;7.20;99.90;;;;;;4998573;28;20174;-93
2021/01/14 00:24:29;;;;;;;24.07;13.70;;;7.10;99.90;;;;;;5017135;28;20193;-92
2021/01/14 00:26:57;;;;;;;24.03;12.97;;;7.00;99.90;;;;;;5033846;28;20188;-92
2021/01/14 00:29:25;;;;;;;30.43;13.07;;;7.00;99.90;;;;;;5048911;28;20181;-92
2021/01/14 00:31:51;;;;;;;23.27;14.33;;;7.00;99.90;;;;;;5038149;28;20157;-91
2021/01/14 00:34:17;;;;;;;26.67;12.63;;;7.10;99.90;;;;;;5049675;28;20265;-93
2021/01/14 00:39:29;;;;;;;24.27;13.30;;;7.10;99.90;;;;;;5016623;28;20705;-93
2021/01/14 00:41:55;;;;;;;21.13;12.27;;;7.00;99.90;;;;;;5016594;28;20272;-92
2021/01/14 00:44:21;;;;;;;23.70;12.47;;;7.00;99.90;;;;;;5015942;28;20197;-92
2021/01/14 00:46:47;;;;;;;20.97;11.17;;;6.90;99.90;;;;;;4999898;28;20250;-93
2021/01/14 00:49:15;;;;;;;16.70;11.23;;;6.90;99.90;;;;;;4999547;28;20201;-91
2021/01/14 00:51:41;;;;;;;20.73;11.37;;;6.90;99.90;;;;;;4999906;28;20203;-93
2021/01/14 00:54:07;;;;;;;14.43;10.37;;;6.90;99.90;;;;;;5016039;28;20177;-93
2021/01/14 00:56:38;;;;;;;17.87;10.43;;;7.00;99.90;;;;;;5032199;28;20181;-92
2021/01/14 00:59:04;;;;;;;18.13;9.53;;;7.00;99.90;;;;;;5015952;28;20179;-93
2021/01/14 01:01:31;;;;;;;14.77;9.33;;;7.00;99.90;;;;;;4999533;28;20169;-92
2021/01/14 01:03:57;;;;;;;13.57;9.00;;;6.90;99.90;;;;;;4999638;28;20565;-92
2021/01/14 01:06:37;;;;;;;16.23;8.50;;;6.90;99.90;;;;;;5002622;28;20259;-92
2021/01/14 01:09:05;;;;;;;13.60;8.23;;;6.90;99.90;;;;;;5019410;28;20634;-92
2021/01/14 01:11:31;;;;;;;13.23;8.60;;;7.00;99.90;;;;;;5019531;28;20177;-92
2021/01/14 01:13:57;;;;;;;9.73;7.40;;;7.00;99.90;;;;;;5002411;28;20173;-92
2021/01/14 01:16:23;;;;;;;12.63;9.10;;;7.10;99.90;;;;;;5029208;28;20157;-91
2021/01/14 01:18:49;;;;;;;8.90;7.07;;;7.00;99.90;;;;;;5039213;28;20160;-92
2021/01/14 01:21:15;;;;;;;10.00;7.47;;;7.00;99.90;;;;;;5039261;28;20156;-92
2021/01/14 01:23:41;;;;;;;9.40;7.10;;;6.90;99.90;;;;;;5022799;28;20184;-91
2021/01/14 01:27:20;;;;;;;9.93;7.53;;;6.90;99.90;;;;;;5023373;27;3771724;-91
2021/01/14 01:29:50;;;;;;;15.50;7.50;;;7.00;99.90;;;;;;5081395;28;20212;-91
2021/01/14 01:32:16;;;;;;;15.90;8.00;;;7.00;99.90;;;;;;5081389;28;20172;-91
2021/01/14 01:34:41;;;;;;;17.27;7.13;;;6.90;99.90;;;;;;5079834;28;20173;-91
2021/01/14 01:37:07;;;;;;;15.17;7.57;;;6.80;99.90;;;;;;5097180;28;20173;-91
2021/01/14 01:39:33;;;;;;;9.10;7.60;;;6.80;99.90;;;;;;5115075;28;20222;-91
2021/01/14 02:06:10;;;;;;;13.17;9.47;;;6.60;99.90;;;;;;5031315;28;20286;-90
2021/01/14 02:08:40;;;;;;;15.80;10.07;;;6.70;99.90;;;;;;5016420;28;20214;-90
2021/01/14 02:11:30;;;;;;;17.93;9.90;;;6.60;99.90;;;;;;5031463;28;20222;-89
2021/01/14 02:14:23;;;;;;;14.53;10.00;;;6.70;99.90;;;;;;5037733;28;20183;-90
2021/01/14 02:16:51;;;;;;;17.37;9.20;;;6.80;99.90;;;;;;5037969;28;20192;-90
2021/01/14 02:19:32;;;;;;;14.67;10.10;;;6.70;99.90;;;;;;5037979;28;20192;-89
2021/01/14 02:22:07;;;;;;;20.97;10.13;;;6.70;99.90;;;;;;5000078;28;20185;-91
2021/01/14 02:24:39;;;;;;;14.57;10.30;;;6.80;99.90;;;;;;4998273;28;20243;-91
2021/01/14 02:27:09;;;;;;;14.30;10.00;;;6.80;99.90;;;;;;4998627;28;20259;-91
2021/01/14 02:29:36;;;;;;;19.20;10.87;;;6.80;99.90;;;;;;4999874;28;20199;-91
2021/01/14 02:32:05;;;;;;;14.37;9.47;;;6.80;99.90;;;;;;5018516;28;20226;-91
2021/01/14 02:34:30;;;;;;;10.03;9.03;;;6.80;99.90;;;;;;5018187;28;20748;-90
2021/01/14 02:36:59;;;;;;;11.73;9.47;;;6.70;99.90;;;;;;5012336;28;20181;-91
2021/01/14 02:39:24;;;;;;;15.57;9.40;;;6.70;99.90;;;;;;5002676;28;20181;-91
2021/01/14 02:41:50;;;;;;;13.17;9.63;;;6.70;99.90;;;;;;5003269;28;20196;-91
2021/01/14 02:44:16;;;;;;;14.93;9.40;;;6.70;99.90;;;;;;5002163;28;20172;-91
2021/01/14 02:46:42;;;;;;;12.17;9.40;;;6.70;99.90;;;;;;5003616;28;20196;-90
2021/01/14 03:10:32;;;;;;;15.07;11.30;;;7.00;99.90;;;;;;5262548;22;20715;-91
2021/01/14 03:12:58;;;;;;;16.47;11.20;;;7.10;99.90;;;;;;5017885;28;20181;-91
2021/01/14 03:15:23;;;;;;;16.57;11.17;;;6.90;99.90;;;;;;5017755;28;20168;-91
2021/01/14 03:17:49;;;;;;;12.43;10.40;;;7.00;99.90;;;;;;5001987;28;20184;-91
2021/01/14 03:20:15;;;;;;;15.70;10.53;;;6.80;99.90;;;;;;5009054;28;20559;-91
2021/01/14 03:22:41;;;;;;;18.47;11.00;;;6.70;99.90;;;;;;5013105;28;20201;-92
2021/01/14 03:25:09;;;;;;;16.87;10.77;;;6.70;99.90;;;;;;5001805;28;20177;-91
2021/01/14 03:27:40;;;;;;;16.30;10.83;;;6.70;99.90;;;;;;5017365;28;20268;-91
2021/01/14 03:30:07;;;;;;;15.27;11.67;;;6.80;99.90;;;;;;5017751;28;20180;-91
2021/01/14 03:32:33;;;;;;;17.70;11.60;;;6.80;99.90;;;;;;5009494;28;20318;-91
2021/01/14 03:34:59;;;;;;;14.63;11.03;;;6.70;99.90;;;;;;5013715;28;20268;-91
2021/01/14 03:37:24;;;;;;;13.70;11.03;;;6.80;99.90;;;;;;4999209;28;20184;-90
2021/01/14 03:39:50;;;;;;;14.77;11.73;;;6.80;99.90;;;;;;4986270;28;20224;-91
2021/01/14 03:42:21;;;;;;;15.07;12.40;;;6.90;99.90;;;;;;5000173;28;20180;-91
2021/01/14 03:44:46;;;;;;;19.20;12.20;;;6.90;99.90;;;;;;5017036;28;20173;-91
2021/01/14 03:47:12;;;;;;;19.33;13.63;;;7.00;99.90;;;;;;4998936;28;20243;-91
2021/01/14 03:49:38;;;;;;;21.13;12.63;;;6.90;99.90;;;;;;5014352;28;20652;-91
2021/01/14 03:52:04;;;;;;;20.07;12.20;;;6.90;99.90;;;;;;4998852;28;20181;-91
2021/01/14 03:54:29;;;;;;;15.50;12.57;;;6.80;99.90;;;;;;5000104;28;20200;-91
2021/01/14 03:56:55;;;;;;;19.63;13.87;;;6.80;99.90;;;;;;5017192;28;20180;-90
2021/01/14 03:59:21;;;;;;;17.30;14.10;;;6.80;99.90;;;;;;5016518;28;20204;-91
2021/01/14 04:01:46;;;;;;;24.40;14.23;;;6.80;99.90;;;;;;5017200;28;20173;-91
2021/01/14 04:04:12;;;;;;;18.43;13.50;;;6.90;99.90;;;;;;5017307;28;20626;-91
2021/01/14 04:06:38;;;;;;;17.33;13.83;;;6.90;99.90;;;;;;5001305;28;20200;-91
2021/01/14 04:09:05;;;;;;;17.53;14.57;;;6.90;99.90;;;;;;5016432;28;20634;-91
2021/01/14 04:11:34;;;;;;;22.03;13.90;;;6.90;99.90;;;;;;5015776;28;20200;-91
2021/01/14 04:14:00;;;;;;;18.83;14.47;;;6.90;99.90;;;;;;5014992;28;20173;-91
2021/01/14 04:16:26;;;;;;;20.00;14.13;;;6.80;99.90;;;;;;5014792;28;20173;-91
2021/01/14 04:18:52;;;;;;;19.67;14.17;;;6.80;99.90;;;;;;5014691;28;20231;-91
2021/01/14 04:21:18;;;;;;;20.90;14.53;;;6.90;99.90;;;;;;5014942;28;20260;-91
2021/01/14 04:23:44;;;;;;;15.47;13.80;;;6.90;99.90;;;;;;5014992;28;20208;-91
2021/01/14 04:26:11;;;;;;;21.30;13.90;;;6.80;99.90;;;;;;5014810;28;20196;-91
2021/01/14 04:28:39;;;;;;;18.37;13.90;;;6.80;99.90;;;;;;5014803;28;20604;-91
2021/01/14 04:31:06;;;;;;;18.57;13.63;;;6.80;99.90;;;;;;4999908;28;20177;-91
2021/01/14 04:33:32;;;;;;;16.23;13.93;;;6.80;99.90;;;;;;4993555;28;20637;-91
2021/01/14 04:36:00;;;;;;;18.87;13.90;;;6.90;99.90;;;;;;5014583;28;20196;-90
2021/01/14 04:38:27;;;;;;;15.93;12.90;;;6.90;99.90;;;;;;5014546;28;20541;-91
2021/01/14 04:41:06;;;;;;;20.40;12.73;;;6.80;99.90;;;;;;5014156;28;20181;-91
2021/01/14 04:43:33;;;;;;;15.83;13.10;;;6.80;99.90;;;;;;5016007;28;20172;-91
2021/01/14 04:46:09;;;;;;;18.80;13.30;;;6.90;99.90;;;;;;5019784;28;20259;-90
2021/01/14 04:48:39;;;;;;;15.40;12.73;;;6.90;99.90;;;;;;5028785;28;20646;-91
2021/01/14 04:51:10;;;;;;;20.10;12.87;;;6.90;99.90;;;;;;5014690;28;20697;-91
2021/01/14 04:53:38;;;;;;;14.87;12.93;;;6.90;99.90;;;;;;5014733;28;20552;-91
2021/01/14 04:56:06;;;;;;;14.97;12.83;;;6.90;99.90;;;;;;5022122;28;20176;-91
2021/01/14 04:58:40;;;;;;;16.37;12.67;;;6.90;99.90;;;;;;5035332;28;20172;-91
2021/01/14 05:01:10;;;;;;;15.50;11.70;;;6.90;99.90;;;;;;5036807;28;20184;-91
2021/01/14 05:03:38;;;;;;;13.23;12.03;;;6.90;99.90;;;;;;5025406;28;20177;-91
2021/01/14 05:06:06;;;;;;;12.80;11.50;;;6.90;99.90;;;;;;5014283;28;20205;-91
2021/01/14 05:08:33;;;;;;;16.20;12.93;;;6.90;99.90;;;;;;5014458;28;20172;-91
2021/01/14 05:11:01;;;;;;;16.90;13.70;;;7.00;99.90;;;;;;5014032;28;20238;-91
2021/01/14 05:13:32;;;;;;;15.47;12.33;;;6.70;99.90;;;;;;5016941;28;20176;-91
2021/01/14 05:15:58;;;;;;;14.60;12.40;;;6.40;99.90;;;;;;5035218;28;20203;-91
2021/01/14 05:18:24;;;;;;;16.60;11.23;;;6.40;99.90;;;;;;5035701;28;20153;-91
2021/01/14 05:20:50;;;;;;;14.23;12.77;;;6.50;99.90;;;;;;5020368;28;20200;-91
2021/01/14 05:23:20;;;;;;;15.50;12.87;;;6.60;99.90;;;;;;5014325;28;20176;-92
2021/01/14 05:25:53;;;;;;;16.97;12.70;;;6.70;99.90;;;;;;5014404;28;20612;-91
2021/01/14 05:28:23;;;;;;;12.33;9.70;;;6.60;99.90;;;;;;5010869;28;20220;-90
2021/01/14 05:30:50;;;;;;;6.70;6.20;;;5.80;99.90;;;;;;4995155;28;20169;-90
2021/01/14 05:33:18;;;;;;;6.93;6.23;;;5.00;99.90;;;;;;4994691;28;20176;-91
2021/01/14 05:35:48;;;;;;;6.87;5.80;;;4.50;99.90;;;;;;4995527;28;20181;-91
2021/01/14 05:38:22;;;;;;;7.33;6.00;;;4.10;99.90;;;;;;4995062;28;20291;-89
2021/01/14 05:43:32;;;;;;;8.80;5.80;;;3.80;99.90;;;;;;5012880;28;20668;-91
2021/01/14 05:46:19;;;;;;;5.97;5.20;;;3.80;99.90;;;;;;5015470;28;20236;-91
2021/01/14 05:48:45;;;;;;;9.63;5.40;;;3.60;99.90;;;;;;5014269;28;20255;-90
2021/01/14 05:51:21;;;;;;;4.57;4.17;;;3.40;99.90;;;;;;5014211;28;20595;-89
2021/01/14 05:54:03;;;;;;;6.40;4.27;;;3.20;99.90;;;;;;5014411;28;20168;-90
2021/01/14 05:56:29;;;;;;;5.37;4.90;;;3.20;99.90;;;;;;5015810;28;20173;-90
2021/01/14 05:58:55;;;;;;;5.27;4.77;;;3.00;99.90;;;;;;5006149;28;20181;-90
2021/01/14 06:01:23;;;;;;;5.50;4.97;;;2.80;99.90;;;;;;4995079;28;20170;-91
2021/01/14 06:03:49;;;;;;;6.37;4.93;;;2.90;99.90;;;;;;4978772;28;20180;-89
2021/01/14 06:06:16;;;;;;;5.50;5.00;;;2.90;99.90;;;;;;4995317;28;20296;-90
2021/01/14 06:08:43;;;;;;;6.47;5.40;;;2.80;99.90;;;;;;5017124;28;20184;-90
2021/01/14 06:11:22;;;;;;;9.73;6.40;;;2.80;99.90;;;;;;5018621;28;20676;-90
2021/01/14 06:13:49;;;;;;;6.47;5.93;;;2.80;99.90;;;;;;5018760;28;20169;-90
2021/01/14 06:16:16;;;;;;;6.27;5.77;;;2.80;99.90;;;;;;5017907;28;20180;-89
2021/01/14 06:19:05;;;;;;;5.97;5.37;;;2.70;99.90;;;;;;5013795;28;20584;-90
2021/01/14 06:21:48;;;;;;;5.03;4.47;;;2.70;99.90;;;;;;5011516;28;20176;-90
2021/01/14 06:24:39;;;;;;;7.77;4.77;;;2.70;99.90;;;;;;5016993;28;20637;-89
2021/01/14 06:27:05;;;;;;;3.90;3.60;;;2.60;99.90;;;;;;5017049;28;20193;-90
2021/01/14 06:29:37;;;;;;;5.77;3.83;;;2.50;99.90;;;;;;5005154;28;20177;-90
2021/01/14 06:32:14;;;;;;;4.23;3.90;;;2.40;99.90;;;;;;4997117;28;20170;-89
2021/01/14 06:34:43;;;;;;;4.40;4.00;;;2.40;99.90;;;;;;4982899;28;20165;-90
2021/01/14 06:37:17;;;;;;;6.30;3.50;;;2.40;99.90;;;;;;4997998;28;20177;-90
2021/01/14 06:39:54;;;;;;;4.20;3.00;;;2.40;99.90;;;;;;4998174;28;20173;-90
2021/01/14 06:42:22;;;;;;;5.43;3.00;;;2.30;99.90;;;;;;4997678;28;20186;-89
2021/01/14 06:44:50;;;;;;;3.80;3.23;;;2.30;99.90;;;;;;4998094;28;20173;-91
2021/01/14 06:47:34;;;;;;;4.73;3.33;;;2.30;99.90;;;;;;4998363;28;20220;-90
2021/01/14 06:50:18;;;;;;;2.77;2.50;;;2.40;99.90;;;;;;4997312;28;20181;-91
2021/01/14 06:53:00;;;;;;;5.00;2.50;;;2.30;99.90;;;;;;4997556;28;20264;-90
2021/01/14 06:55:29;;;;;;;3.73;1.83;;;2.30;99.90;;;;;;4998497;28;20186;-90
2021/01/14 06:58:15;;;;;;;3.57;1.93;;;2.20;99.90;;;;;;4997622;28;20174;-90
2021/01/14 07:00:45;;;;;;;2.20;1.90;;;2.10;99.90;;;;;;5006439;28;20180;-90
2021/01/14 07:03:20;;;;;;;9.37;2.20;;;2.10;99.90;;;;;;5018150;28;20172;-90
2021/01/14 07:05:52;;;;;;;7.40;2.23;;;2.00;99.90;;;;;;5018127;28;20227;-92
2021/01/14 07:08:38;;;;;;;3.43;2.23;;;2.10;99.90;;;;;;5018137;28;20175;-92
2021/01/14 07:11:08;;;;;;;4.30;2.20;;;2.10;99.90;;;;;;5020786;28;20263;-92
2021/01/14 07:13:35;;;;;;;4.07;2.70;;;2.10;99.90;;;;;;5019380;28;20168;-91
2021/01/14 07:16:02;;;;;;;8.27;2.63;;;2.10;99.90;;;;;;5019261;28;20177;-92
2021/01/14 07:18:30;;;;;;;4.43;2.03;;;2.10;99.90;;;;;;5021057;28;20259;-89
2021/01/14 07:21:34;;;;;;;8.27;2.23;;;2.20;99.90;;;;;;5030981;28;20203;-88
2021/01/14 07:24:38;;;;;;;4.10;2.23;;;2.20;99.90;;;;;;5035507;28;20218;-92
2021/01/14 07:27:08;;;;;;;3.37;2.47;;;2.20;99.90;;;;;;4945292;29;20203;-92
2021/01/14 07:29:42;;;;;;;4.80;2.43;;;2.30;99.90;;;;;;4936671;29;20197;-92
2021/01/14 07:32:07;;;;;;;6.83;2.50;;;2.40;99.90;;;;;;5003555;28;20173;-89
2021/01/14 07:34:46;;;;;;;3.90;2.23;;;2.50;99.90;;;;;;5039207;28;20200;-89
2021/01/14 07:37:16;;;;;;;3.07;2.33;;;2.50;99.90;;;;;;5022084;28;20197;-90
2021/01/14 07:39:57;;;;;;;3.23;2.30;;;2.60;99.90;;;;;;5000728;28;20173;-91
2021/01/14 07:42:27;;;;;;;9.87;2.73;;;2.80;99.90;;;;;;5005803;28;20184;-90
2021/01/14 07:44:59;;;;;;;2.53;2.20;;;2.80;99.90;;;;;;5035366;28;20169;-90
2021/01/14 07:47:33;;;;;;;2.50;2.13;;;2.90;99.90;;;;;;5023166;28;20181;-90
2021/01/14 07:50:16;;;;;;;6.90;2.27;;;2.80;99.90;;;;;;5020666;28;20211;-90
2021/01/14 07:52:42;;;;;;;8.43;2.53;;;2.70;99.90;;;;;;5016371;28;20177;-90
2021/01/14 07:55:08;;;;;;;6.03;2.60;;;2.80;99.90;;;;;;5015866;28;20183;-90
2021/01/14 07:57:48;;;;;;;6.03;2.97;;;2.80;99.90;;;;;;5015984;28;20172;-90
2021/01/14 08:00:23;;;;;;;9.17;3.23;;;2.80;99.90;;;;;;5012583;28;20176;-90
2021/01/14 08:03:14;;;;;;;5.30;2.90;;;2.90;99.90;;;;;;5016248;28;20192;-90
2021/01/14 08:05:44;;;;;;;5.03;2.50;;;2.90;99.90;;;;;;5015742;28;20265;-90
2021/01/14 08:08:30;;;;;;;5.70;2.67;;;3.00;99.90;;;;;;5016444;28;20165;-90
2021/01/14 08:11:09;;;;;;;6.93;3.30;;;3.10;99.90;;;;;;5015448;28;20191;-89
2021/01/14 08:14:03;;;;;;;6.23;3.40;;;3.20;99.90;;;;;;5015161;28;20176;-90
2021/01/14 08:16:34;;;;;;;3.70;2.23;;;3.20;99.90;;;;;;5015343;28;20188;-90
2021/01/14 08:19:21;;;;;;;7.97;3.87;;;3.00;99.90;;;;;;5015078;28;20227;-89
2021/01/14 08:22:02;;;;;;;4.37;2.87;;;3.10;99.90;;;;;;5015440;28;20692;-91
2021/01/14 08:24:45;;;;;;;4.70;2.90;;;3.20;99.90;;;;;;5014441;28;20446;-92
2021/01/14 08:27:13;;;;;;;5.60;3.00;;;3.30;99.90;;;;;;4996818;28;20480;-91
2021/01/14 08:29:45;;;;;;;7.33;3.57;;;3.20;99.90;;;;;;5007841;28;20268;-91
2021/01/14 08:32:34;;;;;;;4.33;2.47;;;3.30;99.90;;;;;;5014593;28;20181;-91
2021/01/14 08:35:21;;;;;;;9.67;2.13;;;3.50;99.90;;;;;;5014601;28;20602;-91
2021/01/14 08:37:48;;;;;;;8.80;2.30;;;3.30;99.90;;;;;;4994943;28;20267;-90
2021/01/14 08:40:23;;;;;;;2.67;2.13;;;2.80;99.90;;;;;;4995025;28;20638;-90
2021/01/14 08:42:59;;;;;;;5.83;2.00;;;2.70;99.90;;;;;;4995555;28;20169;-90
2021/01/14 08:45:28;;;;;;;3.33;1.70;;;2.50;99.90;;;;;;4999363;28;20197;-90
2021/01/14 08:48:00;;;;;;;3.13;1.70;;;2.50;99.90;;;;;;5002583;28;20174;-90
2021/01/14 08:50:43;;;;;;;6.17;2.03;;;2.50;99.90;;;;;;4994884;28;20176;-90
2021/01/14 08:53:19;;;;;;;8.67;2.50;;;2.30;99.90;;;;;;4994960;28;20169;-90
2021/01/14 08:55:52;;;;;;;8.90;2.13;;;2.20;99.90;;;;;;4995404;28;20169;-90
2021/01/14 08:58:19;;;;;;;8.20;1.80;;;2.30;99.90;;;;;;4995361;28;20264;-90
2021/01/14 09:00:49;;;;;;;7.83;1.87;;;2.30;99.90;;;;;;5014617;28;20203;-91
2021/01/14 09:03:18;;;;;;;8.47;2.63;;;2.40;99.90;;;;;;5014267;28;20179;-91
2021/01/14 09:05:47;;;;;;;5.57;2.33;;;2.60;99.90;;;;;;5014202;28;20258;-90
2021/01/14 09:08:19;;;;;;;7.10;2.30;;;2.60;99.90;;;;;;5014331;28;20169;-91
2021/01/14 09:10:49;;;;;;;10.10;2.10;;;2.60;99.90;;;;;;4994422;28;20189;-90
2021/01/14 09:13:17;;;;;;;5.93;2.50;;;2.70;99.90;;;;;;4994718;28;20230;-89
2021/01/14 09:15:47;;;;;;;11.80;2.60;;;2.80;99.90;;;;;;5008969;28;20176;-88
2021/01/14 09:18:17;;;;;;;12.83;2.47;;;2.80;99.90;;;;;;4994230;28;20209;-90
2021/01/14 09:20:55;;;;;;;8.80;2.50;;;3.00;99.90;;;;;;5014223;28;20185;-90
2021/01/14 09:23:22;;;;;;;11.43;2.50;;;3.10;99.90;;;;;;5014617;28;20613;-90
2021/01/14 09:25:55;;;;;;;8.37;2.13;;;3.00;99.90;;;;;;5013057;28;20205;-90
2021/01/14 09:28:27;;;;;;;7.70;2.50;;;3.00;99.90;;;;;;4981486;28;20312;-90
2021/01/14 09:31:01;;;;;;;8.30;2.27;;;3.00;99.90;;;;;;5014144;28;20671;-90
2021/01/14 09:33:30;;;;;;;11.63;2.63;;;3.00;99.90;;;;;;5014848;28;20172;-91
2021/01/14 09:36:14;;;;;;;18.33;2.53;;;3.10;99.90;;;;;;4996046;28;20173;-90
2021/01/14 09:38:48;;;;;;;6.87;3.20;;;3.20;99.90;;;;;;5000237;28;20168;-90
2021/01/14 09:41:37;;;;;;;8.33;3.27;;;3.10;99.90;;;;;;5014276;28;20183;-90
2021/01/14 09:44:08;;;;;;;6.53;3.33;;;3.10;99.90;;;;;;5014636;28;20251;-90
2021/01/14 09:46:43;;;;;;;17.33;3.83;;;3.10;99.90;;;;;;4994282;28;20287;-89
2021/01/14 09:49:15;;;;;;;11.93;2.07;;;3.10;99.90;;;;;;5008245;28;20255;-90
2021/01/14 09:51:45;;;;;;;8.37;2.30;;;3.10;99.90;;;;;;5017764;28;20207;-91
2021/01/14 09:54:12;;;;;;;5.83;1.93;;;3.20;99.90;;;;;;5003577;28;20637;-90
2021/01/14 09:56:49;;;;;;;14.80;2.30;;;3.20;99.90;;;;;;5014124;28;20411;-91
2021/01/14 09:59:51;;;;;;;6.73;1.97;;;3.30;99.90;;;;;;5039610;28;20224;-91
2021/01/14 10:02:29;;;;;;;15.83;2.53;;;3.40;99.90;;;;;;5022289;28;20200;-92
2021/01/14 10:05:15;;;;;;;6.43;2.23;;;3.30;99.90;;;;;;5008632;28;20252;-91
2021/01/14 10:07:49;;;;;;;4.40;1.43;;;3.40;99.90;;;;;;5002569;28;20557;-90
2021/01/14 10:10:17;;;;;;;7.73;2.00;;;3.50;99.90;;;;;;5018951;28;20242;-91
2021/01/14 10:12:54;;;;;;;8.27;1.80;;;3.50;99.90;;;;;;5024766;28;20184;-92
2021/01/14 10:15:22;;;;;;;6.43;1.67;;;3.60;99.90;;;;;;5031263;28;20196;-90
2021/01/14 10:17:48;;;;;;;8.97;3.00;;;3.70;99.90;;;;;;5030759;28;20209;-91
2021/01/14 10:20:14;;;;;;;17.03;2.50;;;3.90;99.90;;;;;;5017047;28;20671;-91
2021/01/14 10:22:51;;;;;;;10.47;2.33;;;4.10;99.90;;;;;;5016811;28;20644;-91
2021/01/14 10:25:18;;;;;;;9.97;2.07;;;3.90;99.90;;;;;;5016522;28;20169;-90
2021/01/14 10:28:07;;;;;;;9.80;2.10;;;3.70;99.90;;;;;;5016561;28;20165;-91
2021/01/14 10:30:41;;;;;;;12.83;1.80;;;3.80;99.90;;;;;;4999667;28;20173;-91
2021/01/14 10:33:07;;;;;;;15.17;2.70;;;3.70;99.90;;;;;;4996854;28;20177;-92
2021/01/14 10:35:35;;;;;;;8.33;2.10;;;3.70;99.90;;;;;;5010977;28;20268;-92
2021/01/14 10:38:12;;;;;;;10.60;2.33;;;3.70;99.90;;;;;;5013504;28;20173;-92
2021/01/14 10:40:56;;;;;;;14.03;2.23;;;3.70;99.90;;;;;;5013112;28;20175;-91
2021/01/14 10:43:34;;;;;;;9.30;2.10;;;3.50;99.90;;;;;;5016097;28;20173;-91
2021/01/14 10:46:01;;;;;;;16.33;3.57;;;3.50;99.90;;;;;;5016444;28;20193;-92
2021/01/14 10:48:39;;;;;;;12.17;2.47;;;3.50;99.90;;;;;;5004163;28;20209;-92
2021/01/14 10:51:05;;;;;;;10.57;2.50;;;3.60;99.90;;;;;;5005334;28;20252;-92
2021/01/14 10:53:33;;;;;;;12.87;2.37;;;3.70;99.90;;;;;;5018526;28;20207;-92
2021/01/14 10:56:19;;;;;;;10.50;1.90;;;4.00;99.90;;;;;;5017214;28;20174;-93
2021/01/14 10:59:06;;;;;;;15.27;2.30;;;4.20;99.90;;;;;;5023964;28;20536;-92
2021/01/14 11:01:35;;;;;;;14.73;2.43;;;4.60;99.90;;;;;;5025377;28;20196;-92
2021/01/14 11:04:09;;;;;;;12.90;2.10;;;4.80;99.90;;;;;;5020974;28;20173;-92
2021/01/14 11:06:36;;;;;;;14.17;2.47;;;4.70;99.90;;;;;;5021134;28;20200;-93
2021/01/14 11:09:06;;;;;;;13.13;2.47;;;4.80;99.90;;;;;;5029230;28;20197;-92
2021/01/14 11:11:35;;;;;;;15.80;2.90;;;4.90;99.90;;;;;;5032856;28;20195;-91
2021/01/14 11:14:01;;;;;;;13.50;2.43;;;4.60;99.90;;;;;;5018923;28;20191;-92
2021/01/14 11:16:27;;;;;;;6.90;2.23;;;4.40;99.90;;;;;;5006582;28;20177;-91
2021/01/14 11:18:57;;;;;;;10.03;2.67;;;4.30;99.90;;;;;;5004126;28;20267;-91
2021/01/14 11:21:33;;;;;;;13.90;3.20;;;4.40;99.90;;;;;;5018271;28;20612;-92
2021/01/14 11:24:03;;;;;;;16.70;2.50;;;4.40;99.90;;;;;;5017733;28;20670;-91
2021/01/14 11:26:28;;;;;;;8.03;2.20;;;4.40;99.90;;;;;;5016724;28;20215;-92
2021/01/14 11:28:54;;;;;;;12.53;2.60;;;4.40;99.90;;;;;;5000469;28;20267;-93
2021/01/14 11:31:22;;;;;;;11.40;2.03;;;4.50;99.90;;;;;;5017118;28;20169;-92
2021/01/14 11:33:48;;;;;;;13.00;1.83;;;4.40;99.90;;;;;;5005739;28;20185;-91
2021/01/14 11:36:20;;;;;;;11.57;2.10;;;4.40;99.90;;;;;;5027029;28;20180;-93
2021/01/14 11:38:45;;;;;;;10.40;2.47;;;4.20;99.90;;;;;;5000121;28;20519;-93
2021/01/14 11:41:16;;;;;;;10.23;2.43;;;4.10;99.90;;;;;;5015957;28;20181;-92
2021/01/14 11:43:44;;;;;;;6.13;1.73;;;4.00;99.90;;;;;;5011406;28;20180;-93
2021/01/14 11:46:10;;;;;;;12.57;2.40;;;3.90;99.90;;;;;;4998713;28;20198;-93
2021/01/14 11:48:36;;;;;;;10.07;1.97;;;3.70;99.90;;;;;;4999811;28;20249;-92
2021/01/14 11:51:01;;;;;;;13.67;2.73;;;3.60;99.90;;;;;;5015362;28;20169;-92
2021/01/14 11:53:27;;;;;;;9.80;2.13;;;3.60;99.90;;;;;;5015120;28;20176;-91
2021/01/14 11:55:53;;;;;;;11.53;2.63;;;3.50;99.90;;;;;;5015032;28;20173;-91
2021/01/14 11:58:18;;;;;;;4.03;1.87;;;3.50;99.90;;;;;;5015475;28;20180;-90
2021/01/14 12:00:45;;;;;;;8.10;2.30;;;3.40;99.90;;;;;;5003508;28;20177;-91
2021/01/14 12:03:10;;;;;;;2.80;1.63;;;3.30;99.90;;;;;;4996619;28;20177;-91
2021/01/14 12:05:36;;;;;;;4.60;1.60;;;3.20;99.90;;;;;;5010400;28;20196;-90
2021/01/14 12:08:02;;;;;;;6.67;1.97;;;3.20;99.90;;;;;;5017419;28;20219;-91
2021/01/14 12:10:28;;;;;;;7.33;2.20;;;3.30;99.90;;;;;;4987749;28;20205;-91
2021/01/14 12:12:54;;;;;;;5.50;2.00;;;3.30;99.90;;;;;;5001291;28;20170;-90
2021/01/14 12:15:21;;;;;;;3.67;1.67;;;3.30;99.90;;;;;;5006073;28;20272;-90
2021/01/14 12:17:46;;;;;;;7.47;1.90;;;3.30;99.90;;;;;;5014231;28;20239;-90
2021/01/14 12:20:12;;;;;;;7.20;1.80;;;3.10;99.90;;;;;;5018864;28;20212;-91
2021/01/14 12:22:42;;;;;;;5.33;2.00;;;3.10;99.90;;;;;;5032760;28;20199;-90
2021/01/14 12:25:09;;;;;;;4.90;2.17;;;3.00;99.90;;;;;;5031081;28;20176;-90
2021/01/14 12:27:36;;;;;;;9.57;1.97;;;2.90;99.90;;;;;;5019800;28;20177;-89
2021/01/14 12:30:03;;;;;;;5.30;1.63;;;2.90;99.90;;;;;;5027136;28;20562;-89
2021/01/14 12:32:29;;;;;;;8.93;1.83;;;2.90;99.90;;;;;;5014673;28;20172;-89
2021/01/14 12:34:55;;;;;;;2.90;2.00;;;2.80;99.90;;;;;;5015154;28;20172;-89
2021/01/14 12:37:22;;;;;;;8.93;2.43;;;2.80;99.90;;;;;;5017195;28;20177;-91
2021/01/14 12:39:47;;;;;;;10.47;2.30;;;2.80;99.90;;;;;;5018828;28;20255;-90
2021/01/14 12:42:13;;;;;;;9.93;2.57;;;2.70;99.90;;;;;;5016810;28;20220;-91
2021/01/14 12:44:39;;;;;;;7.63;2.43;;;2.80;99.90;;;;;;5035060;28;20173;-90
2021/01/14 12:47:05;;;;;;;5.50;2.30;;;3.00;99.90;;;;;;4994941;28;20213;-91
2021/01/14 12:49:31;;;;;;;6.87;2.97;;;3.10;99.90;;;;;;5003166;28;20680;-91
2021/01/14 12:51:57;;;;;;;4.37;2.80;;;3.10;99.90;;;;;;5007623;28;20200;-90
2021/01/14 12:54:23;;;;;;;8.63;3.23;;;3.00;99.90;;;;;;5007103;28;20186;-90
2021/01/14 12:56:49;;;;;;;8.67;4.10;;;3.00;99.90;;;;;;5025872;28;20192;-90
2021/01/14 12:59:17;;;;;;;9.63;3.97;;;3.00;99.90;;;;;;5026902;28;20199;-89
2021/01/14 13:01:49;;;;;;;16.40;4.33;;;3.00;99.90;;;;;;5011352;28;20673;-90
2021/01/14 13:04:17;;;;;;;8.83;4.27;;;3.00;99.90;;;;;;5025649;28;20236;-91
2021/01/14 13:06:44;;;;;;;11.10;4.60;;;3.00;99.90;;;;;;5023567;28;20268;-91
2021/01/14 13:09:11;;;;;;;9.03;4.00;;;3.00;99.90;;;;;;5024564;28;20173;-91
2021/01/14 13:11:41;;;;;;;11.43;4.83;;;3.00;99.90;;;;;;5026915;28;20188;-91
2021/01/14 13:14:11;;;;;;;13.27;4.57;;;3.00;99.90;;;;;;5024563;28;20211;-90
2021/01/14 13:16:41;;;;;;;9.60;4.87;;;2.90;99.90;;;;;;5009092;28;20205;-90
2021/01/14 13:19:12;;;;;;;9.47;4.37;;;2.80;99.90;;;;;;5006729;28;20173;-90
2021/01/14 13:21:43;;;;;;;10.57;4.47;;;2.70;99.90;;;;;;5003052;28;20178;-90
2021/01/14 13:24:13;;;;;;;14.63;5.20;;;2.70;99.90;;;;;;5003911;28;20184;-91
2021/01/14 13:26:39;;;;;;;28.10;5.50;;;2.70;99.90;;;;;;5004111;28;20209;-90
2021/01/14 13:29:07;;;;;;;14.57;5.20;;;2.70;99.90;;;;;;5003520;28;20169;-89
2021/01/14 13:31:41;;;;;;;15.87;6.87;;;2.90;99.90;;;;;;5002876;28;20177;-90
2021/01/14 13:34:08;;;;;;;13.70;5.87;;;3.10;99.90;;;;;;5003433;28;20173;-91
2021/01/14 13:36:35;;;;;;;18.80;5.47;;;3.30;99.90;;;;;;4992363;28;20182;-90
2021/01/14 13:39:01;;;;;;;8.50;4.60;;;3.40;99.90;;;;;;5006567;28;20166;-91
2021/01/14 13:41:26;;;;;;;12.50;5.47;;;3.40;99.90;;;;;;5019329;28;20238;-89
2021/01/14 13:43:52;;;;;;;8.53;4.50;;;3.40;99.90;;;;;;5021562;28;20181;-91
2021/01/14 13:46:18;;;;;;;9.80;4.63;;;3.20;99.90;;;;;;5006931;28;20553;-90
2021/01/14 13:48:44;;;;;;;15.93;5.27;;;3.20;99.90;;;;;;5024726;28;20196;-91
2021/01/14 13:51:09;;;;;;;10.67;4.13;;;3.10;99.90;;;;;;5012054;28;20177;-91
2021/01/14 13:53:36;;;;;;;9.03;4.27;;;3.10;99.90;;;;;;4986500;28;20270;-91
2021/01/14 13:56:03;;;;;;;10.77;4.63;;;3.10;99.90;;;;;;5001463;28;20192;-91
2021/01/14 13:58:30;;;;;;;7.37;4.60;;;3.20;99.90;;;;;;5003905;28;20693;-91